createdAt,value
2023-03-31T00:00:59.783Z,955.72
2023-03-31T00:01:59.756Z,955.69
2023-03-31T00:02:59.803Z,955.69
2023-03-31T00:03:59.919Z,955.70
2023-03-31T00:04:59.897Z,955.62
2023-03-31T00:05:59.647Z,955.72
2023-03-31T00:06:59.624Z,955.71
2023-03-31T00:07:59.594Z,955.69
2023-03-31T00:08:59.566Z,955.76
2023-03-31T00:10:16.039Z,955.73
2023-03-31T00:10:59.509Z,955.78
2023-03-31T00:11:59.484Z,955.74
2023-03-31T00:12:59.475Z,955.73
2023-03-31T00:13:59.431Z,955.72
2023-03-31T00:14:59.411Z,955.69
2023-03-31T00:15:59.427Z,955.70
2023-03-31T00:16:59.530Z,955.70
2023-03-31T00:17:59.400Z,955.77
2023-03-31T00:18:59.291Z,955.79
2023-03-31T00:19:59.263Z,955.76
2023-03-31T00:20:59.991Z,955.74
2023-03-31T00:21:59.212Z,955.81
2023-03-31T00:22:59.191Z,955.81
2023-03-31T00:23:59.165Z,955.79
2023-03-31T00:24:59.124Z,955.76
2023-03-31T00:25:59.110Z,955.75
2023-03-31T00:26:59.081Z,955.75
2023-03-31T00:27:59.074Z,955.74
2023-03-31T00:28:59.038Z,955.72
2023-03-31T00:29:58.993Z,955.73
2023-03-31T00:30:58.973Z,955.73
2023-03-31T00:31:59.017Z,955.74
2023-03-31T00:32:58.959Z,955.77
2023-03-31T00:33:58.906Z,955.76
2023-03-31T00:34:58.852Z,955.79
2023-03-31T00:35:58.864Z,955.72
2023-03-31T00:36:58.798Z,955.70
2023-03-31T00:37:58.768Z,955.71
2023-03-31T00:38:58.742Z,955.73
2023-03-31T00:39:58.714Z,955.79
2023-03-31T00:40:58.691Z,955.69
2023-03-31T00:41:58.674Z,955.60
2023-03-31T00:42:58.630Z,955.54
2023-03-31T00:43:58.609Z,955.57
2023-03-31T00:44:58.580Z,955.65
2023-03-31T00:45:58.601Z,955.57
2023-03-31T00:46:58.521Z,955.42
2023-03-31T00:47:58.552Z,955.44
2023-03-31T00:48:58.466Z,955.39
2023-03-31T00:49:58.438Z,955.34
2023-03-31T00:50:58.422Z,955.36
2023-03-31T00:51:58.389Z,955.44
2023-03-31T00:52:58.361Z,955.47
2023-03-31T00:53:58.330Z,955.61
2023-03-31T00:54:58.303Z,955.59
2023-03-31T00:55:58.275Z,955.58
2023-03-31T00:56:58.280Z,955.51
2023-03-31T00:57:58.224Z,955.49
2023-03-31T00:58:58.193Z,955.48
2023-03-31T00:59:58.172Z,955.39
2023-03-31T01:00:58.168Z,955.44
2023-03-31T01:01:58.116Z,955.42
2023-03-31T01:02:58.221Z,955.42
2023-03-31T01:03:58.128Z,955.37
2023-03-31T01:04:58.031Z,955.36
2023-03-31T01:05:58.016Z,955.31
2023-03-31T01:06:57.978Z,955.29
2023-03-31T01:07:57.951Z,955.27
2023-03-31T01:08:57.927Z,955.24
2023-03-31T01:09:57.897Z,955.25
2023-03-31T01:10:57.884Z,955.22
2023-03-31T01:11:57.841Z,955.21
2023-03-31T01:12:57.819Z,955.20
2023-03-31T01:13:57.793Z,955.18
2023-03-31T01:14:57.756Z,955.18
2023-03-31T01:15:57.732Z,955.17
2023-03-31T01:16:57.790Z,955.14
2023-03-31T01:17:57.884Z,955.14
2023-03-31T01:18:57.728Z,955.16
2023-03-31T01:19:57.648Z,955.19
2023-03-31T01:20:57.595Z,955.20
2023-03-31T01:21:57.573Z,955.17
2023-03-31T01:22:57.548Z,955.17
2023-03-31T01:23:57.516Z,955.15
2023-03-31T01:24:57.486Z,955.11
2023-03-31T01:25:57.460Z,955.12
2023-03-31T01:26:57.431Z,955.09
2023-03-31T01:27:57.410Z,955.08
2023-03-31T01:28:57.377Z,955.04
2023-03-31T01:29:57.351Z,955.03
2023-03-31T01:30:57.342Z,955.04
2023-03-31T01:31:57.301Z,955.08
2023-03-31T01:32:57.304Z,955.04
2023-03-31T01:33:57.251Z,955.00
2023-03-31T01:34:57.214Z,954.96
2023-03-31T01:35:57.274Z,954.89
2023-03-31T01:36:57.159Z,954.82
2023-03-31T01:37:57.133Z,954.83
2023-03-31T01:38:57.104Z,954.78
2023-03-31T01:39:57.078Z,954.76
2023-03-31T01:40:57.056Z,954.78
2023-03-31T01:41:57.024Z,954.81
2023-03-31T01:42:56.992Z,954.80
2023-03-31T01:43:56.976Z,954.79
2023-03-31T01:44:56.941Z,954.74
2023-03-31T01:45:56.940Z,954.68
2023-03-31T01:46:56.886Z,954.72
2023-03-31T01:47:56.897Z,954.71
2023-03-31T01:48:56.832Z,954.71
2023-03-31T01:49:56.813Z,954.72
2023-03-31T01:50:56.775Z,954.74
2023-03-31T01:51:56.802Z,954.73
2023-03-31T01:52:56.722Z,954.70
2023-03-31T01:53:56.697Z,954.69
2023-03-31T01:54:56.671Z,954.73
2023-03-31T01:55:56.643Z,954.74
2023-03-31T01:56:56.630Z,954.71
2023-03-31T01:57:56.588Z,954.74
2023-03-31T01:58:56.562Z,954.69
2023-03-31T01:59:56.532Z,954.70
2023-03-31T02:00:56.503Z,954.74
2023-03-31T02:01:56.553Z,954.64
2023-03-31T02:02:56.498Z,954.65
2023-03-31T02:03:56.580Z,954.65
2023-03-31T02:04:56.394Z,954.68
2023-03-31T02:05:56.373Z,954.64
2023-03-31T02:06:56.336Z,954.61
2023-03-31T02:07:56.343Z,954.57
2023-03-31T02:08:56.289Z,954.55
2023-03-31T02:09:56.261Z,954.45
2023-03-31T02:10:56.235Z,954.47
2023-03-31T02:11:56.211Z,954.40
2023-03-31T02:12:56.182Z,954.36
2023-03-31T02:13:56.157Z,954.32
2023-03-31T02:14:56.126Z,954.35
2023-03-31T02:15:56.153Z,954.34
2023-03-31T02:16:56.067Z,954.29
2023-03-31T02:17:56.099Z,954.28
2023-03-31T02:18:56.019Z,954.26
2023-03-31T02:19:55.984Z,954.29
2023-03-31T02:20:55.954Z,954.24
2023-03-31T02:21:55.955Z,954.22
2023-03-31T02:22:55.913Z,954.17
2023-03-31T02:23:55.897Z,954.09
2023-03-31T02:24:55.854Z,954.01
2023-03-31T02:25:55.825Z,953.97
2023-03-31T02:26:55.802Z,954.01
2023-03-31T02:27:55.773Z,954.06
2023-03-31T02:28:55.736Z,954.03
2023-03-31T02:29:55.713Z,953.99
2023-03-31T02:30:55.681Z,953.99
2023-03-31T02:31:55.707Z,953.98
2023-03-31T02:32:55.691Z,953.96
2023-03-31T02:33:55.614Z,953.91
2023-03-31T02:34:55.571Z,953.90
2023-03-31T02:35:55.672Z,953.86
2023-03-31T02:36:55.517Z,953.87
2023-03-31T02:37:55.520Z,953.91
2023-03-31T02:38:55.462Z,953.86
2023-03-31T02:39:55.460Z,953.87
2023-03-31T02:40:55.407Z,953.77
2023-03-31T02:41:55.384Z,953.75
2023-03-31T02:42:55.355Z,953.66
2023-03-31T02:43:55.326Z,953.60
2023-03-31T02:44:55.299Z,953.68
2023-03-31T02:45:55.352Z,953.69
2023-03-31T02:46:55.242Z,953.66
2023-03-31T02:47:55.281Z,953.68
2023-03-31T02:48:55.188Z,953.73
2023-03-31T02:49:55.168Z,953.67
2023-03-31T02:50:55.133Z,953.66
2023-03-31T02:51:55.111Z,953.62
2023-03-31T02:52:55.079Z,953.51
2023-03-31T02:53:55.054Z,953.43
2023-03-31T02:54:55.024Z,953.37
2023-03-31T02:55:55.016Z,953.37
2023-03-31T02:56:54.990Z,953.36
2023-03-31T02:57:54.941Z,953.37
2023-03-31T02:58:54.929Z,953.33
2023-03-31T02:59:54.886Z,953.35
2023-03-31T03:00:54.922Z,953.41
2023-03-31T03:01:54.837Z,953.39
2023-03-31T03:02:54.869Z,953.38
2023-03-31T03:03:54.783Z,953.32
2023-03-31T03:04:54.752Z,953.27
2023-03-31T03:05:54.725Z,953.18
2023-03-31T03:06:54.696Z,953.20
2023-03-31T03:07:54.669Z,953.24
2023-03-31T03:08:54.637Z,953.06
2023-03-31T03:09:54.620Z,953.09
2023-03-31T03:10:54.589Z,953.14
2023-03-31T03:11:54.579Z,953.11
2023-03-31T03:12:54.536Z,952.96
2023-03-31T03:13:54.501Z,952.83
2023-03-31T03:14:54.471Z,952.77
2023-03-31T03:15:54.448Z,952.74
2023-03-31T03:16:54.451Z,952.72
2023-03-31T03:17:54.447Z,952.68
2023-03-31T03:18:54.361Z,952.58
2023-03-31T03:19:54.338Z,952.57
2023-03-31T03:20:54.313Z,952.49
2023-03-31T03:21:54.281Z,952.47
2023-03-31T03:22:54.258Z,952.36
2023-03-31T03:23:54.240Z,952.22
2023-03-31T03:24:54.207Z,952.17
2023-03-31T03:25:54.172Z,952.18
2023-03-31T03:26:54.140Z,952.26
2023-03-31T03:27:54.155Z,952.26
2023-03-31T03:28:54.084Z,952.24
2023-03-31T03:29:54.057Z,952.16
2023-03-31T03:30:54.030Z,952.19
2023-03-31T03:31:54.003Z,952.13
2023-03-31T03:32:54.003Z,952.11
2023-03-31T03:33:53.945Z,952.07
2023-03-31T03:34:53.918Z,952.13
2023-03-31T03:35:53.965Z,952.10
2023-03-31T03:36:53.875Z,952.12
2023-03-31T03:37:53.844Z,952.03
2023-03-31T03:38:53.812Z,951.94
2023-03-31T03:39:53.782Z,951.87
2023-03-31T03:40:53.755Z,951.85
2023-03-31T03:41:53.725Z,951.80
2023-03-31T03:42:53.698Z,951.82
2023-03-31T03:43:53.686Z,951.81
2023-03-31T03:44:53.643Z,951.71
2023-03-31T03:45:53.655Z,951.64
2023-03-31T03:46:53.586Z,951.61
2023-03-31T03:47:53.593Z,951.56
2023-03-31T03:48:53.549Z,951.54
2023-03-31T03:49:53.501Z,951.45
2023-03-31T03:50:53.481Z,951.38
2023-03-31T03:51:53.445Z,951.35
2023-03-31T03:52:53.417Z,951.29
2023-03-31T03:53:53.390Z,951.25
2023-03-31T03:54:53.360Z,951.23
2023-03-31T03:55:53.332Z,951.22
2023-03-31T03:56:53.317Z,951.25
2023-03-31T03:57:53.277Z,951.24
2023-03-31T03:58:53.251Z,951.23
2023-03-31T03:59:53.257Z,951.25
2023-03-31T04:00:53.194Z,951.24
2023-03-31T04:01:53.205Z,951.25
2023-03-31T04:02:53.197Z,951.28
2023-03-31T04:03:53.108Z,951.27
2023-03-31T04:04:53.112Z,951.17
2023-03-31T04:05:53.068Z,951.17
2023-03-31T04:06:53.022Z,951.12
2023-03-31T04:07:52.993Z,951.11
2023-03-31T04:08:52.968Z,951.02
2023-03-31T04:09:52.939Z,951.03
2023-03-31T04:10:52.911Z,951.06
2023-03-31T04:11:52.882Z,951.00
2023-03-31T04:12:52.857Z,951.02
2023-03-31T04:13:52.830Z,951.01
2023-03-31T04:14:52.808Z,950.98
2023-03-31T04:15:52.892Z,950.96
2023-03-31T04:16:52.746Z,951.03
2023-03-31T04:17:52.745Z,950.98
2023-03-31T04:18:52.702Z,950.96
2023-03-31T04:19:52.660Z,951.00
2023-03-31T04:20:52.631Z,951.05
2023-03-31T04:21:52.604Z,951.03
2023-03-31T04:22:52.577Z,951.07
2023-03-31T04:23:52.574Z,951.06
2023-03-31T04:24:52.552Z,951.11
2023-03-31T04:25:52.492Z,951.09
2023-03-31T04:26:52.471Z,950.98
2023-03-31T04:27:52.437Z,951.02
2023-03-31T04:28:52.414Z,950.94
2023-03-31T04:29:52.379Z,950.83
2023-03-31T04:30:52.353Z,950.75
2023-03-31T04:31:52.395Z,950.72
2023-03-31T04:32:52.319Z,950.68
2023-03-31T04:33:52.268Z,950.67
2023-03-31T04:34:52.242Z,950.65
2023-03-31T04:35:52.257Z,950.65
2023-03-31T04:36:52.193Z,950.62
2023-03-31T04:37:52.164Z,950.56
2023-03-31T04:38:52.929Z,950.47
2023-03-31T04:39:52.102Z,950.44
2023-03-31T04:40:52.085Z,950.47
2023-03-31T04:41:52.045Z,950.44
2023-03-31T04:42:52.019Z,950.39
2023-03-31T04:43:51.989Z,950.32
2023-03-31T04:44:51.964Z,950.24
2023-03-31T04:45:52.037Z,950.27
2023-03-31T04:46:51.913Z,950.23
2023-03-31T04:47:51.932Z,950.22
2023-03-31T04:48:51.850Z,950.27
2023-03-31T04:49:51.825Z,950.33
2023-03-31T04:50:51.797Z,950.33
2023-03-31T04:51:51.788Z,950.26
2023-03-31T04:52:51.759Z,950.19
2023-03-31T04:53:51.712Z,950.10
2023-03-31T04:54:51.684Z,950.07
2023-03-31T04:55:51.655Z,950.06
2023-03-31T04:56:51.644Z,949.99
2023-03-31T04:57:51.602Z,950.02
2023-03-31T04:58:51.575Z,949.97
2023-03-31T04:59:51.545Z,950.02
2023-03-31T05:00:51.547Z,950.09
2023-03-31T05:01:51.495Z,950.12
2023-03-31T05:02:51.541Z,950.15
2023-03-31T05:03:51.500Z,950.15
2023-03-31T05:04:51.413Z,950.05
2023-03-31T05:05:51.382Z,950.06
2023-03-31T05:06:51.360Z,950.03
2023-03-31T05:07:51.331Z,950.03
2023-03-31T05:08:51.305Z,949.93
2023-03-31T05:09:51.276Z,949.95
2023-03-31T05:10:51.249Z,949.95
2023-03-31T05:11:51.219Z,949.83
2023-03-31T05:12:51.200Z,949.77
2023-03-31T05:13:51.165Z,949.75
2023-03-31T05:14:51.149Z,949.79
2023-03-31T05:15:51.115Z,949.74
2023-03-31T05:16:51.105Z,949.78
2023-03-31T05:17:51.091Z,949.85
2023-03-31T05:18:51.033Z,949.90
2023-03-31T05:19:51.017Z,949.85
2023-03-31T05:20:50.973Z,949.84
2023-03-31T05:21:50.987Z,949.88
2023-03-31T05:22:50.932Z,949.92
2023-03-31T05:23:50.892Z,949.90
2023-03-31T05:24:50.871Z,949.90
2023-03-31T05:25:50.832Z,949.95
2023-03-31T05:26:50.809Z,949.97
2023-03-31T05:27:50.777Z,950.00
2023-03-31T05:28:50.749Z,949.99
2023-03-31T05:29:50.723Z,949.95
2023-03-31T05:30:50.696Z,949.90
2023-03-31T05:31:50.720Z,949.92
2023-03-31T05:32:50.680Z,949.90
2023-03-31T05:33:50.616Z,949.88
2023-03-31T05:34:52.186Z,949.93
2023-03-31T05:35:50.600Z,950.01
2023-03-31T05:36:50.543Z,950.08
2023-03-31T05:37:50.499Z,950.14
2023-03-31T05:38:50.475Z,950.17
2023-03-31T05:39:50.446Z,950.21
2023-03-31T05:40:50.418Z,950.21
2023-03-31T05:41:50.389Z,950.20
2023-03-31T05:42:50.363Z,950.33
2023-03-31T05:43:50.333Z,950.36
2023-03-31T05:44:50.305Z,950.31
2023-03-31T05:45:50.295Z,950.31
2023-03-31T05:46:50.279Z,950.30
2023-03-31T05:47:50.237Z,950.28
2023-03-31T05:48:50.194Z,950.31
2023-03-31T05:49:50.168Z,950.34
2023-03-31T05:50:50.141Z,950.27
2023-03-31T05:51:50.134Z,950.22
2023-03-31T05:52:50.087Z,950.18
2023-03-31T05:53:50.066Z,950.07
2023-03-31T05:54:50.043Z,950.03
2023-03-31T05:55:50.004Z,950.06
2023-03-31T05:56:50.008Z,950.02
2023-03-31T05:57:49.942Z,950.04
2023-03-31T05:58:49.915Z,949.99
2023-03-31T05:59:49.896Z,950.02
2023-03-31T06:00:49.881Z,949.99
2023-03-31T06:01:49.940Z,950.03
2023-03-31T06:02:49.883Z,950.00
2023-03-31T06:03:49.792Z,950.02
2023-03-31T06:04:49.754Z,950.07
2023-03-31T06:05:49.722Z,949.99
2023-03-31T06:06:49.695Z,949.96
2023-03-31T06:07:49.695Z,949.94
2023-03-31T06:08:49.641Z,949.94
2023-03-31T06:09:49.619Z,949.92
2023-03-31T06:10:49.587Z,950.09
2023-03-31T06:11:50.566Z,950.12
2023-03-31T06:12:49.531Z,950.09
2023-03-31T06:13:49.516Z,950.16
2023-03-31T06:14:49.476Z,950.19
2023-03-31T06:15:49.462Z,950.18
2023-03-31T06:16:49.424Z,950.05
2023-03-31T06:17:49.420Z,950.13
2023-03-31T06:18:49.378Z,950.33
2023-03-31T06:19:49.340Z,950.33
2023-03-31T06:20:49.315Z,950.28
2023-03-31T06:21:49.317Z,950.18
2023-03-31T06:22:49.268Z,950.21
2023-03-31T06:23:49.248Z,950.22
2023-03-31T06:24:49.201Z,950.28
2023-03-31T06:25:51.747Z,950.23
2023-03-31T06:26:49.897Z,950.25
2023-03-31T06:27:49.141Z,950.25
2023-03-31T06:28:49.096Z,950.21
2023-03-31T06:29:49.081Z,950.25
2023-03-31T06:30:49.038Z,950.32
2023-03-31T06:31:49.081Z,950.30
2023-03-31T06:32:49.008Z,950.27
2023-03-31T06:33:48.952Z,950.33
2023-03-31T06:34:48.926Z,950.30
2023-03-31T06:35:49.120Z,950.30
2023-03-31T06:36:48.888Z,950.33
2023-03-31T06:37:48.842Z,950.34
2023-03-31T06:38:48.816Z,950.27
2023-03-31T06:39:48.807Z,950.25
2023-03-31T06:40:48.763Z,950.08
2023-03-31T06:41:48.744Z,950.13
2023-03-31T06:42:48.713Z,950.21
2023-03-31T06:43:48.678Z,950.32
2023-03-31T06:44:48.656Z,950.34
2023-03-31T06:45:48.664Z,950.39
2023-03-31T06:46:48.698Z,950.40
2023-03-31T06:47:48.620Z,950.37
2023-03-31T06:48:48.678Z,950.25
2023-03-31T06:49:48.528Z,950.28
2023-03-31T06:50:48.493Z,950.26
2023-03-31T06:51:48.461Z,950.21
2023-03-31T06:52:48.445Z,950.24
2023-03-31T06:53:48.413Z,950.27
2023-03-31T06:54:48.381Z,950.34
2023-03-31T06:55:48.384Z,950.47
2023-03-31T06:56:48.350Z,950.47
2023-03-31T06:57:48.299Z,950.28
2023-03-31T06:58:48.271Z,950.28
2023-03-31T06:59:48.244Z,950.44
2023-03-31T07:00:48.220Z,950.56
2023-03-31T07:01:48.326Z,950.57
2023-03-31T07:02:48.211Z,950.59
2023-03-31T07:03:48.190Z,950.57
2023-03-31T07:04:48.108Z,950.73
2023-03-31T07:05:48.079Z,950.67
2023-03-31T07:06:48.057Z,950.69
2023-03-31T07:07:48.028Z,950.69
2023-03-31T07:08:48.002Z,950.65
2023-03-31T07:09:47.972Z,950.59
2023-03-31T07:10:47.945Z,950.37
2023-03-31T07:11:47.940Z,950.41
2023-03-31T07:12:47.888Z,950.44
2023-03-31T07:13:47.862Z,950.41
2023-03-31T07:14:47.844Z,950.52
2023-03-31T07:15:47.935Z,950.51
2023-03-31T07:16:47.831Z,950.48
2023-03-31T07:17:47.788Z,950.62
2023-03-31T07:18:47.731Z,950.70
2023-03-31T07:19:47.700Z,950.58
2023-03-31T07:20:47.678Z,950.55
2023-03-31T07:21:47.646Z,950.55
2023-03-31T07:22:47.632Z,950.48
2023-03-31T07:23:47.595Z,950.54
2023-03-31T07:24:47.569Z,950.45
2023-03-31T07:25:47.544Z,950.46
2023-03-31T07:26:47.509Z,950.53
2023-03-31T07:27:47.508Z,950.41
2023-03-31T07:28:47.457Z,950.41
2023-03-31T07:29:47.436Z,950.47
2023-03-31T07:30:47.405Z,950.42
2023-03-31T07:31:47.419Z,950.44
2023-03-31T07:32:47.410Z,950.39
2023-03-31T07:33:47.335Z,950.47
2023-03-31T07:34:47.295Z,950.45
2023-03-31T07:35:54.029Z,950.54
2023-03-31T07:36:47.271Z,950.55
2023-03-31T07:37:47.216Z,950.51
2023-03-31T07:38:47.187Z,950.56
2023-03-31T07:39:47.160Z,950.47
2023-03-31T07:40:55.651Z,950.48
2023-03-31T07:41:47.107Z,950.65
2023-03-31T07:42:49.181Z,950.61
2023-03-31T07:43:47.098Z,950.54
2023-03-31T07:44:47.031Z,950.55
2023-03-31T07:45:47.086Z,950.62
2023-03-31T07:46:46.989Z,950.43
2023-03-31T07:47:46.982Z,950.41
2023-03-31T07:48:46.928Z,950.35
2023-03-31T07:49:46.894Z,950.36
2023-03-31T07:50:46.869Z,950.36
2023-03-31T07:51:46.843Z,950.29
2023-03-31T07:52:47.279Z,950.39
2023-03-31T07:53:46.789Z,950.42
2023-03-31T07:54:46.761Z,950.29
2023-03-31T07:55:46.740Z,950.30
2023-03-31T07:56:46.774Z,950.40
2023-03-31T07:57:46.687Z,950.37
2023-03-31T07:58:46.658Z,950.27
2023-03-31T07:59:46.647Z,950.14
2023-03-31T08:00:46.607Z,950.21
2023-03-31T08:01:46.599Z,950.23
2023-03-31T08:02:46.582Z,950.28
2023-03-31T08:03:46.615Z,950.18
2023-03-31T08:04:46.497Z,950.12
2023-03-31T08:05:46.469Z,950.04
2023-03-31T08:06:46.444Z,950.07
2023-03-31T08:07:46.429Z,950.09
2023-03-31T08:08:46.403Z,950.10
2023-03-31T08:09:46.360Z,950.10
2023-03-31T08:10:46.333Z,950.10
2023-03-31T08:11:46.988Z,950.16
2023-03-31T08:12:46.288Z,950.18
2023-03-31T08:13:46.255Z,950.15
2023-03-31T08:14:46.234Z,950.19
2023-03-31T08:15:46.254Z,950.24
2023-03-31T08:16:46.234Z,950.26
2023-03-31T08:17:46.212Z,950.39
2023-03-31T08:18:46.124Z,950.42
2023-03-31T08:19:46.099Z,950.36
2023-03-31T08:20:47.744Z,950.48
2023-03-31T08:21:46.038Z,950.37
2023-03-31T08:22:46.018Z,950.48
2023-03-31T08:23:45.988Z,950.45
2023-03-31T08:24:45.966Z,950.41
2023-03-31T08:25:45.951Z,950.37
2023-03-31T08:26:45.909Z,950.31
2023-03-31T08:27:45.889Z,950.35
2023-03-31T08:28:45.863Z,950.37
2023-03-31T08:29:45.839Z,950.41
2023-03-31T08:30:45.814Z,950.44
2023-03-31T08:31:45.821Z,950.41
2023-03-31T08:32:45.760Z,950.46
2023-03-31T08:33:45.726Z,950.41
2023-03-31T08:34:45.696Z,950.46
2023-03-31T08:35:45.713Z,950.51
2023-03-31T08:36:45.660Z,950.48
2023-03-31T08:37:45.620Z,950.52
2023-03-31T08:38:45.606Z,950.57
2023-03-31T08:39:45.566Z,950.52
2023-03-31T08:40:45.549Z,950.50
2023-03-31T08:41:45.517Z,950.53
2023-03-31T08:42:45.488Z,950.47
2023-03-31T08:43:45.466Z,950.41
2023-03-31T08:44:45.436Z,950.44
2023-03-31T08:45:45.464Z,950.51
2023-03-31T08:46:45.393Z,950.55
2023-03-31T08:47:45.437Z,950.50
2023-03-31T08:48:45.453Z,950.53
2023-03-31T08:49:45.309Z,950.52
2023-03-31T08:50:45.282Z,950.61
2023-03-31T08:51:45.264Z,950.61
2023-03-31T08:52:45.231Z,950.57
2023-03-31T08:53:45.221Z,950.59
2023-03-31T08:54:45.181Z,950.53
2023-03-31T08:55:45.155Z,950.42
2023-03-31T08:56:45.166Z,950.42
2023-03-31T08:57:45.595Z,950.38
2023-03-31T08:58:45.096Z,950.32
2023-03-31T08:59:45.056Z,950.26
2023-03-31T09:00:45.026Z,950.18
2023-03-31T09:01:55.318Z,950.36
2023-03-31T09:02:45.109Z,950.38
2023-03-31T09:03:45.091Z,950.39
2023-03-31T09:04:44.939Z,950.21
2023-03-31T09:05:58.852Z,950.26
2023-03-31T09:06:44.876Z,950.29
2023-03-31T09:07:44.850Z,950.37
2023-03-31T09:08:44.834Z,950.40
2023-03-31T09:09:44.799Z,950.40
2023-03-31T09:10:44.772Z,950.32
2023-03-31T09:11:44.754Z,950.43
2023-03-31T09:12:44.734Z,950.50
2023-03-31T09:13:44.701Z,950.51
2023-03-31T09:14:44.672Z,950.44
2023-03-31T09:15:44.645Z,950.36
2023-03-31T09:16:44.675Z,950.24
2023-03-31T09:17:44.634Z,950.37
2023-03-31T09:18:44.571Z,950.34
2023-03-31T09:19:44.678Z,950.36
2023-03-31T09:20:44.527Z,950.34
2023-03-31T09:21:44.504Z,950.41
2023-03-31T09:22:44.470Z,950.36
2023-03-31T09:23:44.450Z,950.29
2023-03-31T09:24:44.425Z,950.18
2023-03-31T09:25:44.397Z,949.92
2023-03-31T09:26:44.372Z,949.91
2023-03-31T09:27:44.370Z,950.07
2023-03-31T09:28:44.320Z,950.05
2023-03-31T09:29:44.313Z,950.05
2023-03-31T09:30:44.268Z,950.04
2023-03-31T09:31:44.257Z,950.07
2023-03-31T09:32:44.298Z,949.80
2023-03-31T09:33:44.192Z,949.78
2023-03-31T09:34:44.166Z,949.82
2023-03-31T09:35:46.308Z,949.73
2023-03-31T09:36:44.117Z,949.83
2023-03-31T09:37:44.099Z,949.84
2023-03-31T09:38:44.064Z,949.88
2023-03-31T09:39:44.039Z,950.05
2023-03-31T09:40:44.013Z,950.05
2023-03-31T09:41:43.988Z,950.13
2023-03-31T09:42:43.961Z,950.06
2023-03-31T09:43:43.938Z,950.04
2023-03-31T09:44:43.914Z,950.11
2023-03-31T09:45:47.675Z,950.21
2023-03-31T09:46:43.890Z,950.17
2023-03-31T09:47:43.864Z,950.25
2023-03-31T09:48:43.810Z,950.18
2023-03-31T09:49:53.628Z,949.98
2023-03-31T09:50:43.761Z,949.93
2023-03-31T09:51:43.754Z,949.87
2023-03-31T09:52:43.716Z,949.80
2023-03-31T09:53:43.709Z,949.81
2023-03-31T09:54:43.663Z,949.89
2023-03-31T09:55:43.648Z,949.79
2023-03-31T09:56:43.677Z,949.84
2023-03-31T09:57:43.594Z,949.86
2023-03-31T09:58:43.560Z,949.82
2023-03-31T09:59:43.534Z,949.76
2023-03-31T10:00:43.518Z,949.70
2023-03-31T10:01:43.515Z,949.76
2023-03-31T10:02:43.496Z,949.71
2023-03-31T10:03:43.440Z,949.81
2023-03-31T10:04:43.409Z,949.79
2023-03-31T10:05:43.412Z,949.84
2023-03-31T10:06:43.361Z,949.80
2023-03-31T10:07:43.358Z,949.78
2023-03-31T10:08:43.313Z,949.84
2023-03-31T10:09:43.285Z,949.87
2023-03-31T10:10:43.262Z,949.77
2023-03-31T10:11:43.235Z,949.69
2023-03-31T10:12:43.209Z,949.64
2023-03-31T10:13:43.188Z,949.69
2023-03-31T10:14:43.166Z,949.78
2023-03-31T10:15:43.211Z,949.82
2023-03-31T10:16:43.112Z,949.79
2023-03-31T10:17:53.879Z,949.53
2023-03-31T10:18:43.056Z,949.45
2023-03-31T10:19:43.041Z,949.41
2023-03-31T10:20:43.010Z,949.49
2023-03-31T10:21:42.998Z,949.56
2023-03-31T10:22:42.967Z,949.45
2023-03-31T10:23:42.961Z,949.55
2023-03-31T10:24:42.949Z,949.36
2023-03-31T10:25:42.886Z,949.47
2023-03-31T10:26:42.859Z,949.44
2023-03-31T10:27:42.837Z,949.39
2023-03-31T10:28:42.807Z,949.27
2023-03-31T10:29:42.785Z,949.14
2023-03-31T10:30:42.756Z,949.10
2023-03-31T10:31:42.772Z,949.04
2023-03-31T10:32:42.796Z,948.94
2023-03-31T10:33:42.758Z,949.00
2023-03-31T10:34:42.671Z,949.13
2023-03-31T10:35:42.639Z,949.09
2023-03-31T10:36:42.606Z,949.13
2023-03-31T10:37:42.585Z,949.22
2023-03-31T10:38:42.619Z,949.17
2023-03-31T10:39:42.557Z,949.08
2023-03-31T10:40:42.523Z,949.16
2023-03-31T10:41:42.485Z,949.30
2023-03-31T10:42:42.456Z,949.16
2023-03-31T10:43:42.433Z,949.21
2023-03-31T10:44:42.409Z,949.09
2023-03-31T10:45:42.387Z,949.06
2023-03-31T10:46:42.466Z,948.95
2023-03-31T10:47:42.346Z,948.92
2023-03-31T10:48:42.305Z,948.98
2023-03-31T10:49:42.283Z,949.23
2023-03-31T10:50:42.259Z,949.32
2023-03-31T10:51:42.232Z,949.53
2023-03-31T10:52:42.206Z,949.48
2023-03-31T10:53:42.203Z,949.38
2023-03-31T10:54:42.154Z,949.09
2023-03-31T10:55:42.152Z,949.07
2023-03-31T10:56:42.133Z,948.90
2023-03-31T10:57:42.130Z,949.09
2023-03-31T10:58:47.015Z,949.17
2023-03-31T10:59:42.047Z,949.14
2023-03-31T11:00:41.999Z,949.21
2023-03-31T11:01:42.068Z,949.22
2023-03-31T11:02:41.980Z,949.22
2023-03-31T11:03:42.098Z,949.45
2023-03-31T11:04:41.900Z,949.30
2023-03-31T11:05:41.871Z,949.47
2023-03-31T11:06:41.839Z,949.48
2023-03-31T11:07:41.828Z,949.43
2023-03-31T11:08:41.788Z,949.41
2023-03-31T11:09:41.763Z,949.49
2023-03-31T11:10:41.731Z,949.60
2023-03-31T11:11:41.727Z,949.61
2023-03-31T11:12:41.689Z,949.38
2023-03-31T11:13:41.661Z,949.40
2023-03-31T11:14:41.645Z,949.41
2023-03-31T11:15:41.634Z,949.54
2023-03-31T11:16:41.609Z,949.37
2023-03-31T11:17:41.552Z,949.38
2023-03-31T11:18:41.527Z,949.43
2023-03-31T11:19:41.492Z,949.29
2023-03-31T11:20:41.458Z,949.31
2023-03-31T11:21:41.446Z,949.28
2023-03-31T11:22:41.403Z,949.38
2023-03-31T11:23:41.376Z,949.38
2023-03-31T11:24:41.362Z,949.34
2023-03-31T11:25:41.319Z,949.12
2023-03-31T11:26:41.295Z,949.10
2023-03-31T11:27:41.306Z,949.15
2023-03-31T11:28:41.249Z,948.95
2023-03-31T11:29:41.225Z,948.97
2023-03-31T11:30:41.184Z,949.00
2023-03-31T11:31:41.186Z,948.91
2023-03-31T11:32:41.146Z,949.07
2023-03-31T11:33:41.114Z,948.92
2023-03-31T11:34:41.072Z,948.99
2023-03-31T11:35:41.069Z,948.99
2023-03-31T11:36:41.015Z,948.94
2023-03-31T11:37:40.989Z,948.93
2023-03-31T11:38:40.963Z,948.99
2023-03-31T11:39:40.941Z,948.97
2023-03-31T11:40:40.904Z,948.92
2023-03-31T11:41:40.878Z,948.95
2023-03-31T11:42:40.861Z,948.95
2023-03-31T11:43:40.854Z,948.94
2023-03-31T11:44:40.797Z,948.88
2023-03-31T11:45:40.791Z,948.91
2023-03-31T11:46:40.821Z,948.83
2023-03-31T11:47:40.725Z,948.80
2023-03-31T11:48:40.706Z,948.74
2023-03-31T11:49:40.659Z,948.74
2023-03-31T11:50:40.630Z,948.83
2023-03-31T11:51:40.605Z,948.62
2023-03-31T11:52:40.595Z,948.63
2023-03-31T11:53:40.557Z,948.64
2023-03-31T11:54:40.541Z,948.61
2023-03-31T11:55:40.499Z,948.54
2023-03-31T11:56:40.477Z,948.57
2023-03-31T11:57:40.470Z,948.70
2023-03-31T11:58:40.416Z,948.76
2023-03-31T11:59:40.419Z,948.55
2023-03-31T12:00:40.367Z,948.62
2023-03-31T12:01:40.338Z,948.66
2023-03-31T12:02:40.350Z,948.69
2023-03-31T12:03:40.310Z,948.59
2023-03-31T12:04:40.259Z,948.47
2023-03-31T12:05:40.266Z,948.57
2023-03-31T12:06:40.205Z,948.53
2023-03-31T12:07:40.179Z,948.60
2023-03-31T12:08:40.156Z,948.68
2023-03-31T12:09:40.130Z,948.74
2023-03-31T12:10:40.100Z,948.89
2023-03-31T12:11:40.076Z,949.03
2023-03-31T12:12:40.048Z,949.23
2023-03-31T12:13:40.019Z,949.32
2023-03-31T12:14:39.995Z,949.45
2023-03-31T12:15:40.014Z,949.42
2023-03-31T12:16:40.036Z,949.62
2023-03-31T12:17:39.974Z,949.69
2023-03-31T12:18:39.894Z,949.97
2023-03-31T12:19:39.868Z,950.02
2023-03-31T12:20:39.837Z,950.08
2023-03-31T12:21:39.809Z,950.28
2023-03-31T12:22:39.782Z,950.34
2023-03-31T12:23:39.754Z,950.30
2023-03-31T12:24:39.744Z,950.23
2023-03-31T12:25:39.701Z,949.92
2023-03-31T12:26:39.685Z,949.94
2023-03-31T12:27:39.664Z,950.22
2023-03-31T12:28:39.623Z,950.11